createdAt,value
2019-06-08T00:02:14.696Z,10.27
2019-06-08T00:04:42.065Z,10.60
2019-06-08T00:07:09.333Z,11.60
2019-06-08T00:09:36.717Z,11.43
2019-06-08T00:12:04.168Z,12.40
2019-06-08T00:14:31.512Z,12.90
2019-06-08T00:16:58.828Z,11.50
2019-06-08T00:19:26.114Z,12.27
2019-06-08T00:21:53.399Z,12.00
2019-06-08T00:24:21.851Z,11.83
2019-06-08T00:26:49.361Z,12.07
2019-06-08T00:29:16.638Z,12.70
2019-06-08T00:31:44.033Z,13.63
2019-06-08T00:34:11.384Z,13.70
2019-06-08T00:36:38.663Z,12.57
2019-06-08T00:39:07.608Z,14.00
2019-06-08T00:41:34.890Z,12.73
2019-06-08T00:44:02.178Z,12.53
2019-06-08T00:46:29.486Z,12.40
2019-06-08T00:48:56.773Z,12.40
2019-06-08T00:51:25.454Z,12.50
2019-06-08T00:53:54.793Z,12.60
2019-06-08T00:56:22.121Z,13.47
2019-06-08T00:58:49.469Z,13.27
2019-06-08T01:01:20.172Z,11.20
2019-06-08T01:03:45.782Z,12.23
2019-06-08T01:06:13.062Z,13.23
2019-06-08T01:08:40.451Z,11.80
2019-06-08T01:11:07.801Z,12.20
2019-06-08T01:13:35.153Z,12.77
2019-06-08T01:16:02.524Z,11.40
2019-06-08T01:18:29.801Z,13.23
2019-06-08T01:20:57.081Z,12.33
2019-06-08T01:23:25.553Z,11.30
2019-06-08T01:25:53.090Z,12.47
2019-06-08T01:28:20.373Z,12.93
2019-06-08T01:30:47.665Z,12.70
2019-06-08T01:33:15.824Z,13.03
2019-06-08T01:35:43.216Z,13.17
2019-06-08T01:38:10.602Z,12.40
2019-06-08T01:40:38.196Z,13.13
2019-06-08T01:43:05.545Z,12.80
2019-06-08T01:45:33.568Z,11.90
2019-06-08T01:48:15.946Z,13.57
2019-06-08T01:50:32.658Z,13.53
2019-06-08T01:53:00.764Z,13.10
2019-06-08T01:55:29.011Z,13.20
2019-06-08T01:57:56.589Z,12.27
2019-06-08T02:00:37.733Z,12.90
2019-06-08T02:02:53.176Z,12.83
2019-06-08T02:05:20.628Z,13.30
2019-06-08T02:07:47.992Z,12.90
2019-06-08T02:10:15.346Z,15.13
2019-06-08T02:12:42.624Z,13.80
2019-06-08T02:15:10.095Z,13.70
2019-06-08T02:17:37.436Z,13.90
2019-06-08T02:20:07.666Z,13.67
2019-06-08T02:22:35.188Z,14.67
2019-06-08T02:25:02.668Z,13.73
2019-06-08T02:27:31.343Z,13.37
2019-06-08T02:29:58.774Z,13.90
2019-06-08T02:32:26.056Z,15.33
2019-06-08T02:34:53.406Z,14.47
2019-06-08T02:37:21.005Z,13.97
2019-06-08T02:39:48.366Z,13.00
2019-06-08T02:42:15.826Z,13.00
2019-06-08T02:44:43.134Z,13.73
2019-06-08T02:47:10.556Z,12.77
2019-06-08T02:49:39.643Z,13.40
2019-06-08T02:52:07.105Z,13.70
2019-06-08T02:54:35.432Z,14.50
2019-06-08T02:57:04.249Z,12.30
2019-06-08T02:59:33.096Z,11.93
2019-06-08T03:02:01.406Z,13.73
2019-06-08T03:04:32.251Z,12.40
2019-06-08T03:07:01.010Z,11.63
2019-06-08T03:09:28.357Z,11.30
2019-06-08T03:11:55.797Z,13.20
2019-06-08T03:14:24.729Z,12.00
2019-06-08T03:16:52.295Z,12.27
2019-06-08T03:19:22.287Z,13.17
2019-06-08T03:21:48.614Z,13.93
2019-06-08T03:24:15.964Z,12.07
2019-06-08T03:26:44.192Z,10.63
2019-06-08T03:29:11.702Z,12.97
2019-06-08T03:31:46.117Z,11.20
2019-06-08T03:34:08.080Z,12.80
2019-06-08T03:36:40.323Z,11.70
2019-06-08T03:39:06.013Z,11.27
2019-06-08T03:41:34.403Z,10.90
2019-06-08T03:44:02.449Z,9.70
2019-06-08T03:46:29.725Z,10.80
2019-06-08T03:48:57.017Z,9.50
2019-06-08T03:51:24.335Z,11.70
2019-06-08T03:53:51.745Z,9.63
2019-06-08T03:56:19.022Z,12.47
2019-06-08T03:58:47.868Z,11.23
2019-06-08T04:01:15.350Z,12.60
2019-06-08T04:03:43.905Z,12.13
2019-06-08T04:06:11.471Z,12.30
2019-06-08T04:08:40.904Z,11.43
2019-06-08T04:11:07.751Z,12.50
2019-06-08T04:13:35.105Z,12.53
2019-06-08T04:16:02.468Z,13.70
2019-06-08T04:18:29.815Z,11.83
2019-06-08T04:20:57.120Z,11.90
2019-06-08T04:23:24.401Z,12.47
2019-06-08T04:25:51.777Z,12.90
2019-06-08T04:28:19.062Z,12.83
2019-06-08T04:30:49.173Z,12.47
2019-06-08T04:33:15.625Z,11.93
2019-06-08T04:35:44.766Z,10.97
2019-06-08T04:38:11.978Z,12.10
2019-06-08T04:40:40.062Z,12.00
2019-06-08T04:43:08.357Z,12.70
2019-06-08T04:45:35.629Z,11.63
2019-06-08T04:48:03.015Z,11.87
2019-06-08T04:50:30.365Z,12.43
2019-06-08T04:52:57.645Z,12.40
2019-06-08T04:55:24.953Z,11.47
2019-06-08T04:57:52.246Z,11.93
2019-06-08T05:00:19.694Z,12.50
2019-06-08T05:02:48.793Z,11.00
2019-06-08T05:05:15.973Z,12.17
2019-06-08T05:07:44.273Z,10.37
2019-06-08T05:10:13.218Z,10.53
2019-06-08T05:12:41.235Z,9.33
2019-06-08T05:15:09.591Z,10.27
2019-06-08T05:17:36.938Z,9.57
2019-06-08T05:20:07.341Z,8.87
2019-06-08T05:22:34.626Z,9.40
2019-06-08T05:25:01.918Z,8.50
2019-06-08T05:27:29.284Z,8.80
2019-06-08T05:29:56.560Z,9.60
2019-06-08T05:32:23.838Z,8.63
2019-06-08T05:34:51.121Z,9.23
2019-06-08T05:37:18.389Z,8.23
2019-06-08T05:39:45.848Z,9.10
2019-06-08T05:42:13.144Z,8.03
2019-06-08T05:44:41.592Z,8.70
2019-06-08T05:47:09.093Z,8.57
2019-06-08T05:49:36.465Z,9.90
2019-06-08T05:52:03.837Z,7.77
2019-06-08T05:56:59.570Z,8.53
2019-06-08T05:59:26.861Z,8.13
2019-06-08T06:01:54.466Z,8.43
2019-06-08T06:04:21.737Z,8.20
2019-06-08T06:06:49.242Z,7.70
2019-06-08T06:09:16.715Z,7.13
2019-06-08T06:11:44.782Z,8.10
2019-06-08T06:14:12.221Z,8.37
2019-06-08T06:16:40.810Z,7.70
2019-06-08T06:19:08.274Z,7.83
2019-06-08T06:21:35.544Z,7.37
2019-06-08T06:24:02.909Z,7.47
2019-06-08T06:26:30.189Z,7.87
2019-06-08T06:28:58.285Z,8.40
2019-06-08T06:31:25.557Z,6.90
2019-06-08T06:33:52.888Z,7.47
2019-06-08T06:36:20.269Z,7.13
2019-06-08T06:38:48.108Z,7.60
2019-06-08T06:41:15.865Z,6.90
2019-06-08T06:43:43.975Z,7.30
2019-06-08T06:46:11.366Z,7.60
2019-06-08T06:48:38.631Z,7.57
2019-06-08T06:51:05.957Z,7.17
2019-06-08T06:53:33.481Z,6.70
2019-06-08T06:56:00.761Z,6.10
2019-06-08T06:58:28.081Z,6.97
2019-06-08T07:00:55.587Z,5.90
2019-06-08T07:03:22.854Z,6.90
2019-06-08T07:05:50.137Z,6.43
2019-06-08T07:08:17.406Z,5.97
2019-06-08T07:10:44.735Z,5.63
2019-06-08T07:13:12.073Z,4.93
2019-06-08T07:15:41.690Z,6.63
2019-06-08T07:18:08.347Z,5.50
2019-06-08T07:20:35.676Z,5.87
2019-06-08T07:23:02.973Z,5.80
2019-06-08T07:25:30.245Z,5.90
2019-06-08T07:27:59.150Z,5.60
2019-06-08T07:30:26.731Z,5.10
2019-06-08T07:32:55.129Z,5.20
2019-06-08T07:35:22.593Z,5.67
2019-06-08T07:37:50.566Z,5.30
2019-06-08T07:40:19.206Z,4.57
2019-06-08T07:42:47.856Z,4.70
2019-06-08T07:45:15.942Z,5.17
2019-06-08T07:47:43.208Z,4.90
2019-06-08T07:50:10.649Z,5.20
2019-06-08T07:52:38.086Z,5.10
2019-06-08T07:55:05.516Z,5.03
2019-06-08T07:57:32.796Z,4.30
2019-06-08T08:00:00.278Z,4.70
2019-06-08T08:02:27.816Z,3.93
2019-06-08T08:04:56.607Z,4.27
2019-06-08T08:07:24.206Z,4.03
2019-06-08T08:09:53.169Z,5.00
2019-06-08T08:12:20.633Z,4.40
2019-06-08T08:14:48.758Z,4.30
2019-06-08T08:17:16.139Z,4.40
2019-06-08T08:19:43.458Z,4.30
2019-06-08T08:22:22.038Z,3.90
2019-06-08T08:24:39.737Z,4.70
2019-06-08T08:27:08.447Z,4.07
2019-06-08T08:29:38.289Z,5.40
2019-06-08T08:32:07.241Z,4.73
2019-06-08T08:34:34.080Z,4.50
2019-06-08T08:37:06.059Z,5.07
2019-06-08T08:39:30.380Z,4.40
2019-06-08T08:42:04.404Z,4.57
2019-06-08T08:44:28.329Z,5.63
2019-06-08T08:46:56.987Z,4.87
2019-06-08T08:49:24.798Z,5.27
2019-06-08T08:51:52.261Z,5.03
2019-06-08T08:54:19.534Z,5.10
2019-06-08T08:56:50.478Z,6.60
2019-06-08T08:59:17.751Z,4.87
2019-06-08T09:01:44.916Z,5.33
2019-06-08T09:04:12.187Z,5.07
2019-06-08T09:06:39.651Z,5.03
2019-06-08T09:09:08.905Z,5.30
2019-06-08T09:11:40.837Z,5.03
2019-06-08T09:14:10.964Z,5.30
2019-06-08T09:16:34.287Z,5.20
2019-06-08T09:19:04.809Z,5.17
2019-06-08T09:21:32.338Z,4.73
2019-06-08T09:24:03.507Z,5.27
2019-06-08T09:26:31.299Z,5.20
2019-06-08T09:28:58.453Z,5.27
2019-06-08T09:31:28.199Z,5.93
2019-06-08T09:34:01.326Z,4.70
2019-06-08T09:36:23.905Z,5.13
2019-06-08T09:38:53.250Z,4.47
2019-06-08T09:41:20.291Z,5.30
2019-06-08T09:43:48.731Z,5.80
2019-06-08T09:46:17.910Z,5.60
2019-06-08T09:48:45.302Z,4.80
2019-06-08T09:51:12.593Z,5.37
2019-06-08T09:53:41.561Z,6.50
2019-06-08T09:56:09.698Z,5.70
2019-06-08T09:58:39.108Z,6.03
2019-06-08T10:01:09.173Z,5.97
2019-06-08T10:03:35.574Z,5.73
2019-06-08T10:06:07.016Z,8.93
2019-06-08T10:08:31.953Z,6.90
2019-06-08T10:11:01.550Z,6.00
2019-06-08T10:13:30.568Z,5.83
2019-06-08T10:16:01.947Z,5.60
2019-06-08T10:18:28.532Z,7.30
2019-06-08T10:20:58.066Z,8.83
2019-06-08T10:23:31.874Z,8.50
2019-06-08T10:25:54.815Z,10.23
2019-06-08T10:28:22.411Z,9.40
2019-06-08T10:30:49.760Z,8.37
2019-06-08T10:33:18.484Z,9.30
2019-06-08T10:35:47.947Z,8.60
2019-06-08T10:38:14.977Z,8.40
2019-06-08T10:41:06.567Z,9.77
2019-06-08T10:43:29.781Z,9.33
2019-06-08T10:46:00.187Z,8.30
2019-06-08T10:48:27.646Z,8.50
2019-06-08T10:50:57.981Z,8.33
2019-06-08T10:53:24.321Z,8.93
2019-06-08T10:55:51.709Z,9.00
2019-06-08T10:58:19.502Z,9.30
2019-06-08T11:00:48.070Z,8.33
2019-06-08T11:03:15.634Z,8.70
2019-06-08T11:05:42.902Z,8.40
2019-06-08T11:08:14.163Z,8.10
2019-06-08T11:10:39.343Z,8.80
2019-06-08T11:13:13.245Z,8.70
2019-06-08T11:15:37.829Z,9.40
2019-06-08T11:18:07.081Z,8.33
2019-06-08T11:20:34.007Z,8.83
2019-06-08T11:23:02.449Z,8.90
2019-06-08T11:25:30.377Z,8.47
2019-06-08T11:27:58.635Z,9.03
2019-06-08T11:30:30.220Z,8.90
2019-06-08T11:32:57.645Z,9.63
2019-06-08T11:35:24.684Z,8.80
2019-06-08T11:37:52.029Z,8.77
2019-06-08T11:40:20.763Z,7.40
2019-06-08T11:42:48.581Z,9.40
2019-06-08T11:45:17.781Z,8.70
2019-06-08T11:47:45.267Z,8.70
2019-06-08T11:50:13.496Z,9.37
2019-06-08T11:52:41.006Z,8.90
2019-06-08T11:55:11.197Z,10.00
2019-06-08T11:57:40.468Z,10.47
2019-06-08T12:00:17.496Z,9.83
2019-06-08T12:02:38.332Z,10.10
2019-06-08T12:05:08.697Z,9.17
2019-06-08T12:07:35.413Z,10.57
2019-06-08T12:10:03.064Z,10.37
2019-06-08T12:12:30.728Z,8.87
2019-06-08T12:14:58.344Z,9.73
2019-06-08T12:17:27.627Z,8.80
2019-06-08T12:19:54.772Z,8.43
2019-06-08T12:22:22.054Z,9.60
2019-06-08T12:24:51.061Z,10.00
2019-06-08T12:27:29.471Z,9.60
2019-06-08T12:29:50.230Z,8.53
2019-06-08T12:32:18.372Z,9.60
2019-06-08T12:34:45.519Z,9.07
2019-06-08T12:37:17.476Z,9.60
2019-06-08T12:39:41.825Z,9.73
2019-06-08T12:42:15.628Z,9.33
2019-06-08T12:44:38.433Z,9.37
2019-06-08T12:47:07.980Z,9.30
2019-06-08T12:49:34.957Z,8.80
2019-06-08T12:52:02.313Z,9.27
2019-06-08T12:54:29.700Z,9.40
2019-06-08T12:56:57.956Z,9.03
2019-06-08T12:59:28.158Z,8.17
2019-06-08T13:01:55.000Z,8.83
2019-06-08T13:04:23.887Z,8.33
2019-06-08T13:06:51.437Z,8.50
2019-06-08T13:09:20.555Z,8.67
2019-06-08T13:11:50.506Z,8.47
2019-06-08T13:14:19.015Z,7.60
2019-06-08T13:16:45.946Z,7.40
2019-06-08T13:19:14.718Z,8.10
2019-06-08T13:21:42.245Z,7.53
2019-06-08T13:24:10.188Z,7.30
2019-06-08T13:26:38.601Z,8.70
2019-06-08T13:29:08.747Z,8.20
2019-06-08T13:31:35.142Z,8.10
2019-06-08T13:34:02.404Z,6.60
2019-06-08T13:36:30.091Z,8.03
2019-06-08T13:38:57.492Z,7.53
2019-06-08T13:41:29.026Z,7.60
2019-06-08T13:43:54.361Z,7.40
2019-06-08T13:46:23.525Z,7.40
2019-06-08T13:48:50.685Z,7.23
2019-06-08T13:51:20.751Z,8.03
2019-06-08T13:53:47.821Z,7.40
2019-06-08T13:56:18.951Z,7.27
2019-06-08T13:58:45.289Z,6.10
2019-06-08T14:01:13.404Z,6.20
2019-06-08T14:03:40.813Z,6.40
2019-06-08T14:06:08.084Z,6.77
2019-06-08T14:08:35.536Z,6.67
2019-06-08T14:11:02.890Z,6.90
2019-06-08T14:13:34.305Z,6.57
2019-06-08T14:15:59.309Z,7.27
2019-06-08T14:18:33.415Z,6.60
2019-06-08T14:20:58.510Z,5.50
2019-06-08T14:23:25.664Z,4.70
2019-06-08T14:25:56.678Z,4.80
2019-06-08T14:28:23.289Z,4.70
2019-06-08T14:30:51.141Z,4.10
2019-06-08T14:33:24.167Z,4.20
2019-06-08T14:35:47.396Z,4.10
2019-06-08T14:38:14.700Z,4.20
2019-06-08T14:40:41.968Z,3.93
2019-06-08T14:43:10.861Z,4.10
2019-06-08T14:45:38.603Z,4.80
2019-06-08T14:48:05.913Z,4.23
2019-06-08T14:50:33.262Z,3.47
2019-06-08T14:53:00.648Z,4.03
2019-06-08T14:55:33.899Z,3.80
2019-06-08T14:57:58.496Z,3.30
2019-06-08T15:00:25.789Z,3.47
2019-06-08T15:02:53.056Z,2.57
2019-06-08T15:05:21.428Z,3.00
2019-06-08T15:07:48.905Z,3.20
2019-06-08T15:10:18.228Z,3.13
2019-06-08T15:12:45.235Z,3.17
2019-06-08T15:15:12.617Z,2.90
2019-06-08T15:17:39.949Z,2.77
2019-06-08T15:20:08.883Z,2.63
2019-06-08T15:22:38.714Z,2.87
2019-06-08T15:25:08.213Z,3.83
2019-06-08T15:27:34.889Z,2.83
2019-06-08T15:30:02.348Z,2.50
2019-06-08T15:32:34.974Z,2.47
2019-06-08T15:34:59.060Z,2.77
2019-06-08T15:37:28.137Z,2.60
2019-06-08T15:39:55.353Z,2.50
2019-06-08T15:42:24.177Z,2.53
2019-06-08T15:44:51.705Z,2.30
2019-06-08T15:47:18.980Z,2.70
2019-06-08T15:49:50.207Z,2.63
2019-06-08T15:52:17.410Z,2.50
2019-06-08T15:54:44.234Z,2.93
2019-06-08T15:57:11.588Z,3.13
2019-06-08T15:59:41.902Z,2.97
2019-06-08T16:02:07.925Z,2.60
2019-06-08T16:04:35.208Z,2.70
2019-06-08T16:07:02.607Z,6.80
2019-06-08T16:09:30.027Z,3.30
2019-06-08T16:11:59.510Z,4.20
2019-06-08T16:14:26.712Z,11.80
2019-06-08T16:16:54.053Z,5.83
2019-06-08T16:19:21.356Z,3.07
2019-06-08T16:21:48.620Z,2.53
2019-06-08T16:24:15.898Z,3.10
2019-06-08T16:26:52.708Z,2.73
2019-06-08T16:29:12.561Z,2.50
2019-06-08T16:31:39.825Z,2.70
2019-06-08T16:34:07.397Z,2.93
2019-06-08T16:36:35.618Z,2.40
2019-06-08T16:39:04.581Z,2.20
2019-06-08T16:41:32.107Z,2.20
2019-06-08T16:43:59.612Z,2.60
2019-06-08T16:46:30.117Z,2.00
2019-06-08T16:48:57.545Z,2.20
2019-06-08T16:51:24.810Z,2.40
2019-06-08T16:53:52.072Z,2.40
2019-06-08T16:56:19.364Z,2.77
2019-06-08T16:58:46.627Z,2.23
2019-06-08T17:01:13.894Z,3.30
2019-06-08T17:03:41.511Z,3.70
2019-06-08T17:06:08.920Z,3.07
2019-06-08T17:08:39.186Z,2.70
2019-06-08T17:11:05.384Z,2.70
2019-06-08T17:13:33.981Z,2.80
2019-06-08T17:16:01.433Z,2.50
2019-06-08T17:18:29.868Z,2.83
2019-06-08T17:20:57.347Z,2.47
2019-06-08T17:23:24.717Z,2.33
2019-06-08T17:25:52.004Z,2.40
2019-06-08T17:28:20.093Z,1.90
2019-06-08T17:30:47.364Z,2.57
2019-06-08T17:33:14.673Z,2.57
2019-06-08T17:35:42.411Z,2.57
2019-06-08T17:38:09.799Z,2.80
2019-06-08T17:40:38.092Z,2.50
2019-06-08T17:43:05.604Z,2.47
2019-06-08T17:45:34.147Z,2.30
2019-06-08T17:48:01.852Z,2.40
2019-06-08T17:50:29.123Z,2.60
2019-06-08T17:52:56.386Z,2.27
2019-06-08T17:55:23.676Z,3.13
2019-06-08T17:57:53.408Z,2.40
2019-06-08T18:00:21.614Z,2.30
2019-06-08T18:02:49.000Z,1.97
2019-06-08T18:05:17.983Z,2.00
2019-06-08T18:07:46.335Z,1.80
2019-06-08T18:10:14.472Z,2.30
2019-06-08T18:12:44.595Z,2.00
2019-06-08T18:15:11.338Z,1.70
2019-06-08T18:17:41.981Z,2.20
2019-06-08T18:20:09.444Z,2.30
2019-06-08T18:22:39.115Z,1.87
2019-06-08T18:25:07.803Z,1.80
2019-06-08T18:27:38.038Z,2.23
2019-06-08T18:30:10.918Z,2.03
2019-06-08T18:32:34.786Z,2.10
2019-06-08T18:35:02.129Z,1.83
2019-06-08T18:37:29.425Z,2.03
2019-06-08T18:39:57.839Z,2.03
2019-06-08T18:42:27.010Z,2.03
2019-06-08T18:44:54.401Z,2.07
2019-06-08T18:47:21.677Z,2.27
2019-06-08T18:49:48.981Z,2.10
2019-06-08T18:52:17.638Z,1.80
2019-06-08T18:54:46.766Z,2.23
2019-06-08T18:57:14.378Z,2.33
2019-06-08T18:59:45.133Z,2.03
2019-06-08T19:02:10.660Z,2.10
2019-06-08T19:04:40.274Z,1.50
2019-06-08T19:07:07.874Z,2.20
2019-06-08T19:09:37.501Z,1.73
2019-06-08T19:12:04.417Z,1.80
2019-06-08T19:14:31.747Z,1.97
2019-06-08T19:16:59.009Z,2.00
2019-06-08T19:19:28.503Z,2.03
2019-06-08T19:21:55.295Z,2.10
2019-06-08T19:24:22.561Z,1.90
2019-06-08T19:26:49.863Z,1.77
2019-06-08T19:29:19.494Z,2.30
2019-06-08T19:31:50.016Z,2.50
2019-06-08T19:34:18.196Z,1.90
2019-06-08T19:36:48.413Z,2.13
2019-06-08T19:39:13.968Z,2.10
2019-06-08T19:41:42.470Z,2.00
2019-06-08T19:44:09.996Z,2.20
2019-06-08T19:46:38.204Z,2.50
2019-06-08T19:49:07.864Z,2.20
2019-06-08T19:51:34.663Z,2.10
2019-06-08T19:54:01.929Z,1.87
2019-06-08T19:56:29.236Z,2.17
2019-06-08T19:59:04.019Z,2.20
2019-06-08T20:01:27.667Z,2.27
2019-06-08T20:03:54.652Z,2.60
2019-06-08T20:06:21.959Z,2.60
2019-06-08T20:08:53.369Z,2.30
2019-06-08T20:11:20.675Z,2.30
2019-06-08T20:13:49.990Z,2.03
2019-06-08T20:16:17.384Z,2.13
2019-06-08T20:18:46.253Z,1.70
2019-06-08T20:21:13.821Z,2.20
2019-06-08T20:23:41.187Z,2.67
2019-06-08T20:26:08.546Z,2.00
2019-06-08T20:28:37.258Z,1.70
2019-06-08T20:31:07.260Z,1.90
2019-06-08T20:33:34.176Z,2.00
2019-06-08T20:36:01.453Z,2.00
2019-06-08T20:38:38.445Z,2.10
2019-06-08T20:41:00.680Z,2.40
2019-06-08T20:43:27.950Z,1.90
2019-06-08T20:45:57.368Z,2.90
2019-06-08T20:48:24.335Z,2.00
2019-06-08T20:50:52.564Z,2.00
2019-06-08T20:53:21.259Z,2.30
2019-06-08T20:55:50.588Z,2.27
2019-06-08T20:58:17.735Z,2.57
2019-06-08T21:00:46.113Z,2.10
2019-06-08T21:03:14.079Z,2.20
2019-06-08T21:05:41.381Z,2.20
2019-06-08T21:08:08.649Z,2.20
2019-06-08T21:10:37.803Z,2.60
2019-06-08T21:13:07.273Z,2.40
2019-06-08T21:15:34.184Z,2.20
2019-06-08T21:18:01.489Z,2.30
2019-06-08T21:20:28.765Z,2.30
2019-06-08T21:22:59.497Z,2.00
2019-06-08T21:25:25.068Z,2.43
2019-06-08T21:27:52.920Z,2.60
2019-06-08T21:30:24.479Z,3.00
2019-06-08T21:32:53.053Z,2.40
2019-06-08T21:35:19.386Z,2.33
2019-06-08T21:37:50.692Z,2.87
2019-06-08T21:40:17.578Z,2.37
2019-06-08T21:42:44.682Z,1.97
2019-06-08T21:45:11.959Z,2.27
2019-06-08T21:47:39.239Z,2.27
2019-06-08T21:50:08.078Z,2.47
2019-06-08T21:52:35.566Z,2.87
2019-06-08T21:55:02.911Z,2.30
2019-06-08T21:57:30.241Z,1.83
2019-06-08T22:00:18.780Z,2.20
2019-06-08T22:02:26.613Z,2.07
2019-06-08T22:04:58.995Z,2.20
2019-06-08T22:07:23.289Z,2.60
2019-06-08T22:09:50.557Z,1.97
2019-06-08T22:12:17.825Z,2.40
2019-06-08T22:14:47.207Z,2.20
2019-06-08T22:17:16.140Z,2.70
2019-06-08T22:19:43.371Z,2.50
2019-06-08T22:22:10.696Z,2.80
2019-06-08T22:24:38.446Z,2.83
2019-06-08T22:27:07.196Z,2.47
2019-06-08T22:29:34.802Z,2.90
2019-06-08T22:32:02.126Z,2.53
2019-06-08T22:34:29.397Z,2.83
2019-06-08T22:36:58.696Z,2.50
2019-06-08T22:39:27.976Z,2.30
2019-06-08T22:41:56.071Z,2.43
2019-06-08T22:44:23.712Z,2.90
2019-06-08T22:46:50.985Z,2.57
2019-06-08T22:49:18.661Z,2.70
2019-06-08T22:51:47.719Z,2.70
2019-06-08T22:54:17.053Z,2.63
2019-06-08T22:56:44.229Z,3.87
2019-06-08T22:59:11.532Z,2.90
2019-06-08T23:01:38.794Z,3.10
2019-06-08T23:04:08.835Z,2.60
2019-06-08T23:06:35.449Z,2.87
2019-06-08T23:09:04.061Z,2.83
2019-06-08T23:11:31.772Z,2.93
2019-06-08T23:14:01.062Z,2.23
2019-06-08T23:16:28.467Z,2.63
2019-06-08T23:18:57.657Z,2.70
2019-06-08T23:21:24.789Z,2.57
2019-06-08T23:23:52.062Z,2.90
2019-06-08T23:26:19.506Z,2.70
2019-06-08T23:28:47.207Z,2.47
2019-06-08T23:31:24.643Z,2.70
2019-06-08T23:33:43.654Z,2.90
2019-06-08T23:38:39.942Z,2.80
2019-06-08T23:41:09.942Z,2.37
2019-06-08T23:43:38.304Z,2.53
2019-06-08T23:46:05.718Z,2.60
2019-06-08T23:48:33.193Z,2.70
2019-06-08T23:51:00.552Z,2.80
2019-06-08T23:53:27.833Z,2.80
2019-06-08T23:55:55.097Z,3.00
2019-06-08T23:58:22.471Z,2.63
